Time;durP1;ratioP1;P1;durP2;ratioP2;P2;SDS_P1;SDS_P2;PMS_P1;PMS_P2;Temp;Humidity;BMP_temperature;BMP_pressure;BME280_temperature;BME280_humidity;BME280_pressure;Samples;Min_cycle;Max_cycle;Signal;HPM_P1;HPM_P2
2022/01/13 00:00:37;;;;;;;179.43;30.10;;;5.70;99.90;;;;;;5093523;28;20486;-86
2022/01/13 00:03:03;;;;;;;170.13;29.73;;;5.70;99.90;;;;;;5097200;28;20029;-85
2022/01/13 00:05:30;;;;;;;190.18;30.02;;;5.70;99.90;;;;;;5066647;28;20048;-84
2022/01/13 00:07:58;;;;;;;158.15;30.13;;;5.70;99.90;;;;;;5080060;28;20040;-85
2022/01/13 00:10:25;;;;;;;183.68;29.65;;;5.70;99.90;;;;;;5083166;28;20529;-85
2022/01/13 00:12:58;;;;;;;203.95;30.17;;;5.70;99.90;;;;;;5048722;28;20040;-84
2022/01/13 00:15:37;;;;;;;175.43;29.80;;;5.70;99.90;;;;;;5081634;28;20430;-85
2022/01/13 00:18:10;;;;;;;178.13;30.40;;;5.70;99.90;;;;;;5049217;28;20045;-85
2022/01/13 00:26:06;;;;;;;157.85;25.00;;;5.70;99.90;;;;;;5064376;28;20036;-84
2022/01/13 00:28:32;;;;;;;139.85;25.30;;;5.70;99.90;;;;;;5042268;28;20043;-84
2022/01/13 00:30:58;;;;;;;151.05;23.85;;;5.70;99.90;;;;;;5046289;28;20032;-85
2022/01/13 00:33:25;;;;;;;155.20;24.73;;;5.70;99.90;;;;;;5062737;28;20401;-84
2022/01/13 00:35:53;;;;;;;135.15;23.50;;;5.70;99.90;;;;;;5073019;28;20064;-84
2022/01/13 00:38:19;;;;;;;118.93;23.92;;;5.70;99.90;;;;;;5061511;28;20045;-85
2022/01/13 00:40:45;;;;;;;124.97;22.95;;;5.70;99.90;;;;;;5047977;28;20085;-85
2022/01/13 00:43:10;;;;;;;103.50;20.88;;;5.70;99.90;;;;;;5042520;28;20068;-84
2022/01/13 00:45:36;;;;;;;114.03;22.17;;;5.70;99.90;;;;;;5056089;28;20037;-85
2022/01/13 00:48:01;;;;;;;98.43;22.70;;;5.70;99.90;;;;;;5059840;28;20037;-84
2022/01/13 00:50:27;;;;;;;97.35;21.85;;;5.70;99.90;;;;;;5045497;28;20228;-84
2022/01/13 00:52:53;;;;;;;105.22;21.80;;;5.70;99.90;;;;;;5047429;28;20033;-84
2022/01/13 00:55:21;;;;;;;87.30;22.05;;;5.70;99.90;;;;;;5047360;28;20032;-84
2022/01/13 00:57:48;;;;;;;90.20;20.10;;;5.70;99.90;;;;;;5093558;28;20463;-85
2022/01/13 01:00:16;;;;;;;93.38;20.92;;;5.70;99.90;;;;;;5046125;28;20037;-85
2022/01/13 01:02:42;;;;;;;84.72;20.00;;;5.70;99.90;;;;;;5045603;28;20036;-85
2022/01/13 01:05:08;;;;;;;82.45;20.88;;;5.70;99.90;;;;;;5045276;28;20047;-84
2022/01/13 01:07:35;;;;;;;83.80;20.20;;;5.70;99.90;;;;;;5046990;28;20052;-84
2022/01/13 01:10:02;;;;;;;85.10;21.05;;;5.70;99.90;;;;;;5062484;28;20599;-85
2022/01/13 01:12:30;;;;;;;82.90;19.70;;;5.70;99.90;;;;;;5066404;28;20060;-85
2022/01/13 01:14:57;;;;;;;66.43;18.58;;;5.70;99.90;;;;;;5088248;28;20049;-85
2022/01/13 01:17:23;;;;;;;81.90;19.15;;;5.70;99.90;;;;;;5064651;28;20036;-85
2022/01/13 01:19:51;;;;;;;69.97;18.88;;;5.70;99.90;;;;;;5042834;28;20051;-85
2022/01/13 01:27:26;;;;;;;74.35;18.52;;;5.70;99.90;;;;;;5089671;28;20106;-85
2022/01/13 01:29:57;;;;;;;80.50;18.95;;;5.70;99.90;;;;;;5062532;28;20097;-84
2022/01/13 01:32:23;;;;;;;85.72;17.60;;;5.70;99.90;;;;;;5074484;28;20094;-85
2022/01/13 01:35:02;;;;;;;87.55;18.83;;;5.70;99.90;;;;;;5090267;28;20052;-85
2022/01/13 01:37:29;;;;;;;85.90;19.75;;;5.70;99.90;;;;;;5045796;28;20569;-84
2022/01/13 01:39:57;;;;;;;87.47;18.60;;;5.70;99.90;;;;;;5044471;28;20036;-84
2022/01/13 01:42:25;;;;;;;86.28;18.58;;;5.80;99.90;;;;;;5078173;28;20112;-85
2022/01/13 01:44:54;;;;;;;72.45;18.60;;;5.70;99.90;;;;;;5073588;28;20036;-85
2022/01/13 01:47:23;;;;;;;77.72;18.92;;;5.80;99.90;;;;;;5075464;28;20080;-84
2022/01/13 01:49:56;;;;;;;95.07;19.90;;;5.70;99.90;;;;;;5053643;28;20498;-84
2022/01/13 01:52:22;;;;;;;86.47;18.98;;;5.80;99.90;;;;;;5081594;28;20037;-85
2022/01/13 01:54:49;;;;;;;88.72;20.25;;;5.80;99.90;;;;;;5047170;28;20477;-85
2022/01/13 01:57:16;;;;;;;92.60;20.30;;;5.80;99.90;;;;;;5066065;28;20533;-85
2022/01/13 01:59:43;;;;;;;84.15;19.08;;;5.80;99.90;;;;;;5077900;28;20120;-84
2022/01/13 02:02:11;;;;;;;99.95;20.98;;;5.70;99.90;;;;;;5098328;28;20064;-85
2022/01/13 02:04:37;;;;;;;86.88;20.20;;;5.70;99.90;;;;;;5080358;28;20043;-85
2022/01/13 02:07:07;;;;;;;88.93;19.77;;;5.70;99.90;;;;;;5063572;28;20119;-84
2022/01/13 02:09:35;;;;;;;77.72;19.60;;;5.70;99.90;;;;;;5066990;28;20066;-84
2022/01/13 02:12:06;;;;;;;74.80;18.70;;;5.70;99.90;;;;;;5066443;28;20079;-85
2022/01/13 02:14:35;;;;;;;76.07;19.65;;;5.70;99.90;;;;;;5079495;28;20056;-85
2022/01/13 02:17:09;;;;;;;91.95;20.30;;;5.70;99.90;;;;;;5063384;28;20048;-85
2022/01/13 02:19:38;;;;;;;70.00;18.63;;;5.70;99.90;;;;;;5046924;28;20502;-85
2022/01/13 02:22:03;;;;;;;73.68;18.50;;;5.70;99.90;;;;;;5072421;28;20040;-85
2022/01/13 02:24:29;;;;;;;84.18;21.63;;;5.70;99.90;;;;;;5080108;28;20028;-85
2022/01/13 02:26:55;;;;;;;86.25;19.80;;;5.70;99.90;;;;;;5066196;28;20037;-85
2022/01/13 02:29:21;;;;;;;97.05;19.90;;;5.70;99.90;;;;;;5088655;28;20047;-85
2022/01/13 02:31:47;;;;;;;78.60;18.75;;;5.70;99.90;;;;;;5047629;28;20036;-84
2022/01/13 02:34:13;;;;;;;74.80;18.45;;;5.70;99.90;;;;;;5048250;28;20040;-85
2022/01/13 02:36:41;;;;;;;69.68;18.38;;;5.60;99.90;;;;;;5096662;28;20033;-85
2022/01/13 02:39:06;;;;;;;74.20;17.45;;;5.60;99.90;;;;;;5096231;28;20047;-85
2022/01/13 02:41:32;;;;;;;74.53;17.85;;;5.60;99.90;;;;;;5045044;28;20036;-84
2022/01/13 02:43:59;;;;;;;77.82;18.10;;;5.60;99.90;;;;;;5063803;28;20074;-84
2022/01/13 02:46:32;;;;;;;86.72;18.90;;;5.60;99.90;;;;;;5049456;28;20044;-84
2022/01/13 02:48:59;;;;;;;85.22;18.33;;;5.60;99.90;;;;;;5089513;28;20037;-84
2022/01/13 02:51:26;;;;;;;87.60;18.35;;;5.60;99.90;;;;;;5088945;28;20401;-85
2022/01/13 02:53:52;;;;;;;89.68;20.48;;;5.60;99.90;;;;;;5096998;28;20409;-84
2022/01/13 02:56:18;;;;;;;74.43;19.13;;;5.60;99.90;;;;;;5077154;28;20508;-85
2022/01/13 02:58:45;;;;;;;74.30;18.65;;;5.50;99.90;;;;;;5057984;28;20466;-84
2022/01/13 03:01:11;;;;;;;78.90;18.60;;;5.60;99.90;;;;;;5079414;28;20036;-85
2022/01/13 03:03:39;;;;;;;81.35;20.65;;;5.60;99.90;;;;;;5080833;28;20144;-85
2022/01/13 03:06:09;;;;;;;65.30;18.55;;;5.60;99.90;;;;;;5049719;28;20051;-85
2022/01/13 03:08:36;;;;;;;71.47;18.67;;;5.60;99.90;;;;;;5091383;28;20036;-85
2022/01/13 03:11:02;;;;;;;68.88;18.05;;;5.50;99.90;;;;;;5049666;28;20529;-85
2022/01/13 03:13:29;;;;;;;70.95;18.25;;;5.60;99.90;;;;;;5045012;28;20029;-85
2022/01/13 03:15:55;;;;;;;70.70;18.52;;;5.50;99.90;;;;;;5073296;28;20045;-84
2022/01/13 03:18:21;;;;;;;67.25;17.60;;;5.60;99.90;;;;;;5064887;28;20059;-85
2022/01/13 03:20:46;;;;;;;72.13;17.98;;;5.50;99.90;;;;;;5075100;28;20029;-85
2022/01/13 03:23:16;;;;;;;70.15;17.67;;;5.50;99.90;;;;;;5067143;28;20468;-85
2022/01/13 03:25:44;;;;;;;68.25;17.75;;;5.50;99.90;;;;;;5060776;28;20037;-84
2022/01/13 03:28:15;;;;;;;80.13;18.00;;;5.50;99.90;;;;;;5049021;28;20036;-84
2022/01/13 03:30:42;;;;;;;73.45;17.27;;;5.60;99.90;;;;;;5059435;28;20040;-85
2022/01/13 03:33:08;;;;;;;87.75;18.10;;;5.60;99.90;;;;;;5063723;28;20505;-85
2022/01/13 03:35:36;;;;;;;61.75;16.63;;;5.60;99.90;;;;;;5046090;28;20040;-85
2022/01/13 03:38:02;;;;;;;87.97;18.45;;;5.60;99.90;;;;;;5046231;28;20050;-85
2022/01/13 03:40:28;;;;;;;67.82;16.77;;;5.60;99.90;;;;;;5048219;28;20032;-84
2022/01/13 03:42:53;;;;;;;82.68;18.65;;;5.60;99.90;;;;;;5047554;28;20028;-85
2022/01/13 03:45:22;;;;;;;67.63;16.65;;;5.60;99.90;;;;;;5073630;28;20040;-85
2022/01/13 03:47:48;;;;;;;90.47;18.23;;;5.60;99.90;;;;;;5056588;28;20113;-84
2022/01/13 03:50:14;;;;;;;87.05;18.83;;;5.60;99.90;;;;;;5071432;28;20103;-85
2022/01/13 03:53:01;;;;;;;81.57;19.65;;;5.60;99.90;;;;;;5088709;28;20048;-85
2022/01/13 03:55:36;;;;;;;85.85;18.50;;;5.60;99.90;;;;;;5075378;28;22287;-85
2022/01/13 03:58:26;;;;;;;82.18;19.50;;;5.60;99.90;;;;;;5061097;28;20037;-85
2022/01/13 04:01:40;;;;;;;91.80;20.70;;;5.60;99.90;;;;;;5063524;28;20512;-85
2022/01/13 04:04:05;;;;;;;69.63;16.65;;;5.60;99.90;;;;;;5087176;28;20117;-84
2022/01/13 04:06:41;;;;;;;82.40;18.02;;;5.60;99.90;;;;;;5071585;28;20608;-85
2022/01/13 04:09:35;;;;;;;85.40;18.83;;;5.60;99.90;;;;;;5076054;28;20457;-85
2022/01/13 04:12:04;;;;;;;78.53;17.25;;;5.60;99.90;;;;;;5063990;28;20542;-85
2022/01/13 04:14:56;;;;;;;79.80;17.63;;;5.70;99.90;;;;;;5046709;28;20048;-84
2022/01/13 04:17:24;;;;;;;80.43;17.27;;;5.60;99.90;;;;;;5079775;28;20041;-85
2022/01/13 04:19:50;;;;;;;90.30;17.05;;;5.60;99.90;;;;;;5062160;28;20032;-86
2022/01/13 04:22:17;;;;;;;86.93;18.27;;;5.60;99.90;;;;;;5041807;28;20024;-85
2022/01/13 04:24:46;;;;;;;74.90;17.15;;;5.60;99.90;;;;;;5046179;28;20045;-85
2022/01/13 04:27:23;;;;;;;80.05;16.90;;;5.60;99.90;;;;;;5091791;28;20044;-85
2022/01/13 04:30:00;;;;;;;95.55;18.52;;;5.60;99.90;;;;;;5074451;28;20044;-85
2022/01/13 04:32:26;;;;;;;67.43;16.98;;;5.60;99.90;;;;;;5057767;28;20052;-86
2022/01/13 04:34:52;;;;;;;76.70;16.25;;;5.60;99.90;;;;;;5046820;28;20036;-85
2022/01/13 04:37:17;;;;;;;89.75;17.90;;;5.60;99.90;;;;;;5056995;28;20851;-85
2022/01/13 04:39:43;;;;;;;66.07;16.77;;;5.60;99.90;;;;;;5059682;28;20037;-85
2022/01/13 04:42:10;;;;;;;75.78;16.60;;;5.50;99.90;;;;;;5060763;28;20041;-85
2022/01/13 04:44:36;;;;;;;72.28;16.48;;;5.60;99.90;;;;;;5046688;28;20042;-85
2022/01/13 04:47:07;;;;;;;71.10;17.00;;;5.60;99.90;;;;;;5053931;28;20028;-85
2022/01/13 04:49:33;;;;;;;70.80;16.83;;;5.60;99.90;;;;;;5059481;28;20033;-85
2022/01/13 04:51:58;;;;;;;81.60;17.33;;;5.60;99.90;;;;;;5043304;28;20489;-85
2022/01/13 04:54:24;;;;;;;66.63;17.15;;;5.60;99.90;;;;;;5057961;28;20516;-85
2022/01/13 04:59:15;;;;;;;77.22;16.35;;;5.50;99.90;;;;;;5066258;28;20041;-85
2022/01/13 05:01:41;;;;;;;86.43;18.42;;;5.50;99.90;;;;;;5045672;28;20052;-85
2022/01/13 05:04:07;;;;;;;75.85;17.42;;;5.50;99.90;;;;;;5040891;28;20039;-85
2022/01/13 05:06:34;;;;;;;74.65;17.73;;;5.50;99.90;;;;;;5076541;28;20595;-85
2022/01/13 05:08:59;;;;;;;78.85;16.52;;;5.50;99.90;;;;;;5063959;28;20041;-85
2022/01/13 05:11:25;;;;;;;76.90;18.23;;;5.50;99.90;;;;;;5061636;28;20089;-84
2022/01/13 05:13:51;;;;;;;71.55;18.52;;;5.50;99.90;;;;;;5071948;28;20044;-85
2022/01/13 05:16:26;;;;;;;76.43;18.40;;;5.50;99.90;;;;;;5078876;28;20536;-86
2022/01/13 05:19:08;;;;;;;70.13;17.98;;;5.50;99.90;;;;;;5090263;28;20057;-85
2022/01/13 05:24:39;;;;;;;79.88;18.05;;;5.50;99.90;;;;;;5003902;28;20050;-85
2022/01/13 05:27:05;;;;;;;68.55;18.20;;;5.50;99.90;;;;;;5024441;28;20427;-85
2022/01/13 05:29:30;;;;;;;79.13;18.80;;;5.50;99.90;;;;;;5046005;28;20048;-85
2022/01/13 05:31:56;;;;;;;87.85;19.35;;;5.50;99.90;;;;;;5095940;28;20618;-85
2022/01/13 05:34:22;;;;;;;71.53;18.67;;;5.50;99.90;;;;;;5046571;28;20032;-85
2022/01/13 05:36:47;;;;;;;68.10;18.52;;;5.50;99.90;;;;;;5051602;28;20501;-85
2022/01/13 05:39:13;;;;;;;77.47;18.83;;;5.50;99.90;;;;;;5042071;28;20044;-85
2022/01/13 05:41:39;;;;;;;75.43;18.52;;;5.50;99.90;;;;;;5066534;28;20036;-85
2022/01/13 05:44:04;;;;;;;70.72;19.25;;;5.50;99.90;;;;;;5073940;28;20155;-85
2022/01/13 05:46:31;;;;;;;69.75;18.50;;;5.50;99.90;;;;;;5062884;28;20685;-85
2022/01/13 05:48:57;;;;;;;65.20;19.25;;;5.50;99.90;;;;;;5048225;28;20040;-84
2022/01/13 05:51:23;;;;;;;55.38;16.35;;;5.50;99.90;;;;;;5076970;28;20089;-84
2022/01/13 05:53:49;;;;;;;69.00;17.80;;;5.50;99.90;;;;;;5079157;28;20037;-85
2022/01/13 05:56:15;;;;;;;74.30;18.38;;;5.50;99.90;;;;;;5079574;28;20090;-85
2022/01/13 05:58:41;;;;;;;71.07;16.98;;;5.50;99.90;;;;;;5064386;28;20162;-85
2022/01/13 06:01:07;;;;;;;63.75;16.95;;;5.50;99.90;;;;;;5067894;28;20767;-85
2022/01/13 06:03:32;;;;;;;68.38;17.83;;;5.50;99.90;;;;;;5077696;28;20032;-85
2022/01/13 06:05:58;;;;;;;62.10;18.05;;;5.50;99.90;;;;;;5048538;28;20123;-85
2022/01/13 06:08:24;;;;;;;62.72;16.25;;;5.50;99.90;;;;;;5062727;28;20052;-85
2022/01/13 06:10:49;;;;;;;73.00;17.02;;;5.50;99.90;;;;;;5091400;28;20478;-85
2022/01/13 06:13:15;;;;;;;77.68;17.40;;;5.50;99.90;;;;;;5062420;28;20178;-85
2022/01/13 06:15:41;;;;;;;73.68;17.75;;;5.50;99.90;;;;;;5064478;28;20064;-84
2022/01/13 06:18:11;;;;;;;67.93;18.08;;;5.50;99.90;;;;;;5063439;28;20040;-85
2022/01/13 06:20:39;;;;;;;62.40;16.40;;;5.50;99.90;;;;;;5056794;28;20520;-85
2022/01/13 06:23:05;;;;;;;69.43;15.75;;;5.50;99.90;;;;;;5079017;28;20119;-85
2022/01/13 06:25:31;;;;;;;62.58;15.73;;;5.50;99.90;;;;;;5063960;28;20542;-85
2022/01/13 06:27:57;;;;;;;60.47;16.55;;;5.50;99.90;;;;;;5060047;28;20112;-85
2022/01/13 06:30:23;;;;;;;63.00;16.77;;;5.50;99.90;;;;;;5063129;28;20090;-85
2022/01/13 06:32:49;;;;;;;76.97;18.08;;;5.40;99.90;;;;;;5091493;28;21281;-85
2022/01/13 06:35:15;;;;;;;67.75;15.80;;;5.50;99.90;;;;;;5066049;28;20123;-84
2022/01/13 06:37:41;;;;;;;73.05;16.52;;;5.50;99.90;;;;;;5058147;28;20045;-85
2022/01/13 06:40:09;;;;;;;63.72;15.70;;;5.40;99.90;;;;;;5043581;28;20395;-85
2022/01/13 06:42:34;;;;;;;65.43;15.68;;;5.40;99.90;;;;;;5049009;28;20032;-85
2022/01/13 06:45:00;;;;;;;66.40;15.75;;;5.40;99.90;;;;;;5076997;28;20040;-85
2022/01/13 06:47:26;;;;;;;62.17;15.80;;;5.40;99.90;;;;;;5094159;28;20036;-85
2022/01/13 06:49:51;;;;;;;67.40;16.92;;;5.40;99.90;;;;;;5045810;28;20674;-85
2022/01/13 06:52:17;;;;;;;62.75;16.05;;;5.40;99.90;;;;;;5059043;28;20294;-84
2022/01/13 06:54:43;;;;;;;64.18;15.93;;;5.40;99.90;;;;;;5079216;28;20094;-85
2022/01/13 06:57:09;;;;;;;73.05;16.17;;;5.40;99.90;;;;;;5041715;28;20036;-85
2022/01/13 06:59:34;;;;;;;67.57;16.38;;;5.40;99.90;;;;;;5046399;28;20059;-85
2022/01/13 07:02:01;;;;;;;85.80;17.10;;;5.40;99.90;;;;;;5050342;28;20059;-85
2022/01/13 07:04:28;;;;;;;65.07;15.77;;;5.40;99.90;;;;;;5090876;28;20040;-85
2022/01/13 07:06:54;;;;;;;64.22;15.75;;;5.40;99.90;;;;;;5086529;28;20479;-85
2022/01/13 07:09:21;;;;;;;75.07;15.77;;;5.40;99.90;;;;;;5042212;28;20052;-85
2022/01/13 07:11:46;;;;;;;67.35;16.08;;;5.40;99.90;;;;;;5061147;28;20075;-85
2022/01/13 07:14:12;;;;;;;70.75;17.13;;;5.50;99.90;;;;;;5072578;28;20520;-85
2022/01/13 07:16:40;;;;;;;69.05;16.27;;;5.50;99.90;;;;;;5059410;28;20045;-85
2022/01/13 07:19:07;;;;;;;71.85;17.50;;;5.50;99.90;;;;;;5073418;28;20040;-85
2022/01/13 07:21:33;;;;;;;75.38;17.63;;;5.50;99.90;;;;;;5088856;28;20036;-85
2022/01/13 07:23:59;;;;;;;82.15;18.00;;;5.50;99.90;;;;;;5088702;28;20036;-85
2022/01/13 07:26:24;;;;;;;65.03;17.20;;;5.50;99.90;;;;;;5047798;28;20519;-85
2022/01/13 07:28:50;;;;;;;78.90;18.75;;;5.50;99.90;;;;;;5047577;28;20040;-85
2022/01/13 07:31:15;;;;;;;71.28;17.25;;;5.50;99.90;;;;;;5096278;28;20043;-84
2022/01/13 07:33:42;;;;;;;69.75;18.98;;;5.60;99.90;;;;;;5093181;28;20072;-85
2022/01/13 07:36:08;;;;;;;79.90;18.50;;;5.60;99.90;;;;;;5045807;28;20409;-84
2022/01/13 07:38:33;;;;;;;84.10;19.10;;;5.60;99.90;;;;;;5048553;28;20158;-85
2022/01/13 07:40:59;;;;;;;81.63;19.10;;;5.60;99.90;;;;;;5065831;28;20078;-85
2022/01/13 07:43:25;;;;;;;68.70;18.65;;;5.60;99.90;;;;;;5057536;28;22031;-84
2022/01/13 07:45:52;;;;;;;92.28;19.15;;;5.60;99.90;;;;;;5075250;28;20384;-85
2022/01/13 07:48:18;;;;;;;72.78;18.58;;;5.60;99.90;;;;;;5090670;28;20915;-83
2022/01/13 07:50:44;;;;;;;84.38;19.23;;;5.60;99.90;;;;;;5092909;27;20179;-86
2022/01/13 07:53:10;;;;;;;79.55;17.80;;;5.60;99.90;;;;;;5059826;28;20461;-86
2022/01/13 07:55:35;;;;;;;84.32;19.10;;;5.60;99.90;;;;;;5078592;28;20029;-86
2022/01/13 07:58:01;;;;;;;68.82;17.77;;;5.60;99.90;;;;;;5069256;28;20340;-85
2022/01/13 08:00:27;;;;;;;74.40;18.60;;;5.70;99.90;;;;;;5060722;28;20579;-85
2022/01/13 08:02:53;;;;;;;74.93;18.55;;;5.60;99.90;;;;;;5044755;28;20032;-86
2022/01/13 08:05:18;;;;;;;80.40;18.08;;;5.70;99.90;;;;;;5046707;28;20037;-87
2022/01/13 08:07:44;;;;;;;75.63;18.08;;;5.70;99.90;;;;;;5061532;28;20044;-86
2022/01/13 08:10:10;;;;;;;76.47;18.20;;;5.70;99.90;;;;;;5060875;28;20406;-86
2022/01/13 08:12:37;;;;;;;76.85;18.20;;;5.70;99.90;;;;;;5069117;28;20065;-86
2022/01/13 08:15:04;;;;;;;74.50;18.50;;;5.70;99.90;;;;;;5063205;28;20063;-86
2022/01/13 08:20:15;;;;;;;76.30;17.73;;;5.70;99.90;;;;;;5063212;28;20048;-88
2022/01/13 08:22:40;;;;;;;73.03;18.30;;;5.70;99.90;;;;;;5061218;28;22278;-86
2022/01/13 08:25:06;;;;;;;81.07;18.90;;;5.70;99.90;;;;;;5061911;28;20442;-86
2022/01/13 08:27:32;;;;;;;78.57;18.23;;;5.70;99.90;;;;;;5064177;28;20489;-87
2022/01/13 08:29:57;;;;;;;94.15;20.80;;;5.70;99.90;;;;;;5069306;28;20051;-86
2022/01/13 08:32:24;;;;;;;75.68;18.45;;;5.70;99.90;;;;;;5060037;28;20063;-85
2022/01/13 08:34:49;;;;;;;68.68;17.20;;;5.80;99.90;;;;;;5074857;28;20505;-86
2022/01/13 08:37:15;;;;;;;73.68;18.35;;;5.70;99.90;;;;;;5060365;28;20037;-86
2022/01/13 08:39:44;;;;;;;72.32;18.50;;;5.70;99.90;;;;;;5076232;28;20087;-86
2022/01/13 08:42:12;;;;;;;71.03;18.35;;;5.70;99.90;;;;;;5092763;28;20093;-86
2022/01/13 08:44:38;;;;;;;69.93;17.88;;;5.80;99.90;;;;;;5042651;28;20147;-83
2022/01/13 08:47:04;;;;;;;70.95;17.90;;;5.80;99.90;;;;;;5038503;28;20135;-86
2022/01/13 08:49:29;;;;;;;78.35;17.75;;;5.80;99.90;;;;;;5054936;28;20113;-86
2022/01/13 08:51:55;;;;;;;77.30;17.50;;;5.80;99.90;;;;;;5082455;28;20171;-85
2022/01/13 08:54:22;;;;;;;70.80;16.88;;;5.80;99.90;;;;;;5063228;28;20045;-85
2022/01/13 08:56:48;;;;;;;71.15;18.33;;;5.80;99.90;;;;;;5065938;28;20318;-86
2022/01/13 08:59:14;;;;;;;78.70;18.55;;;5.80;99.90;;;;;;5083338;28;20047;-86
2022/01/13 09:01:40;;;;;;;74.50;19.20;;;5.80;99.90;;;;;;5084513;28;20041;-86
2022/01/13 09:04:06;;;;;;;68.22;17.98;;;5.90;99.90;;;;;;5069638;28;20040;-86
2022/01/13 09:06:31;;;;;;;73.70;19.42;;;5.80;99.90;;;;;;5069728;28;20042;-86
2022/01/13 09:08:57;;;;;;;71.47;19.20;;;5.90;99.90;;;;;;5068953;28;20041;-86
2022/01/13 09:11:23;;;;;;;70.40;20.45;;;5.90;99.90;;;;;;5050273;28;20040;-86
2022/01/13 09:13:56;;;;;;;75.10;18.98;;;5.90;99.90;;;;;;5051673;28;20391;-86
2022/01/13 09:16:23;;;;;;;72.22;19.35;;;5.90;99.90;;;;;;5070221;28;20127;-87
2022/01/13 09:21:23;;;;;;;80.97;20.13;;;6.00;99.90;;;;;;5068595;28;20129;-86
2022/01/13 09:23:49;;;;;;;79.57;19.20;;;6.00;99.90;;;;;;5053775;28;20453;-86
2022/01/13 09:26:14;;;;;;;83.85;18.85;;;6.00;99.90;;;;;;5053578;28;20523;-85
2022/01/13 09:28:40;;;;;;;77.72;21.80;;;6.00;99.90;;;;;;5070035;28;20486;-86
2022/01/13 09:31:06;;;;;;;86.55;19.48;;;6.10;99.90;;;;;;5069570;28;20032;-86
2022/01/13 09:33:33;;;;;;;75.03;19.63;;;6.10;99.90;;;;;;5053799;28;20051;-86
2022/01/13 09:35:59;;;;;;;80.72;19.10;;;6.10;99.90;;;;;;5069984;28;20067;-86
2022/01/13 09:38:25;;;;;;;73.68;19.02;;;6.10;99.90;;;;;;5104453;28;20476;-86
2022/01/13 09:40:53;;;;;;;90.60;20.48;;;6.10;99.90;;;;;;5051198;28;20128;-86
2022/01/13 09:43:22;;;;;;;91.57;20.30;;;6.10;99.90;;;;;;5069381;28;20441;-86
2022/01/13 09:45:48;;;;;;;88.72;21.13;;;6.10;99.90;;;;;;5070043;28;20044;-86
2022/01/13 09:48:14;;;;;;;90.10;20.67;;;6.20;99.90;;;;;;5070242;28;20086;-86
2022/01/13 09:50:41;;;;;;;85.72;21.10;;;6.20;99.90;;;;;;5063840;28;20037;-82
2022/01/13 09:53:08;;;;;;;95.22;19.17;;;6.20;99.90;;;;;;5066852;28;20071;-85
2022/01/13 09:55:34;;;;;;;75.90;19.55;;;6.20;99.90;;;;;;5071002;28;20089;-85
2022/01/13 09:58:03;;;;;;;89.28;21.30;;;6.20;99.90;;;;;;5068920;28;20032;-84
2022/01/13 10:00:29;;;;;;;83.18;19.67;;;6.20;99.90;;;;;;5080243;28;20048;-84
2022/01/13 10:02:55;;;;;;;89.93;20.50;;;6.20;99.90;;;;;;5073370;28;20052;-86
2022/01/13 10:05:22;;;;;;;87.57;19.92;;;6.20;99.90;;;;;;5041325;28;20531;-85
2022/01/13 10:07:50;;;;;;;98.18;21.55;;;6.20;99.90;;;;;;5058356;28;20040;-84
2022/01/13 10:10:19;;;;;;;92.40;20.15;;;6.20;99.90;;;;;;5064148;28;20037;-85
2022/01/13 10:12:48;;;;;;;111.72;21.77;;;6.20;99.90;;;;;;5063799;28;20078;-84
2022/01/13 10:17:59;;;;;;;95.10;20.75;;;6.20;99.90;;;;;;5058804;28;20045;-84
2022/01/13 10:20:25;;;;;;;96.50;22.33;;;6.20;99.90;;;;;;5063416;28;20036;-86
2022/01/13 10:22:52;;;;;;;90.03;20.70;;;6.20;99.90;;;;;;5059331;28;20044;-85
2022/01/13 10:25:29;;;;;;;88.22;19.88;;;6.20;99.90;;;;;;5081150;28;20673;-86
2022/01/13 10:27:55;;;;;;;91.65;21.30;;;6.20;99.90;;;;;;5060474;28;20055;-85
2022/01/13 10:30:26;;;;;;;92.90;19.58;;;6.20;99.90;;;;;;5069374;28;20069;-85
2022/01/13 10:32:53;;;;;;;80.15;19.33;;;6.20;99.90;;;;;;5057575;28;20159;-84
2022/01/13 10:35:21;;;;;;;93.88;20.50;;;6.20;99.90;;;;;;5093735;28;20110;-85
2022/01/13 10:37:56;;;;;;;78.15;19.45;;;6.30;99.90;;;;;;5084700;28;20036;-83
2022/01/13 10:40:31;;;;;;;76.72;19.83;;;6.30;99.90;;;;;;5079865;28;20089;-83
2022/01/13 10:45:57;;;;;;;103.05;20.50;;;6.30;99.90;;;;;;5068060;28;20497;-84
2022/01/13 10:48:26;;;;;;;85.75;19.83;;;6.30;99.90;;;;;;5039779;28;20044;-84
2022/01/13 10:51:04;;;;;;;77.18;20.00;;;6.30;99.90;;;;;;5073037;28;20037;-86
2022/01/13 10:53:35;;;;;;;80.72;20.13;;;6.30;99.90;;;;;;5047519;28;20087;-86
2022/01/13 10:56:09;;;;;;;84.70;20.50;;;6.30;99.90;;;;;;5060951;28;20059;-85
2022/01/13 10:58:41;;;;;;;86.95;20.42;;;6.30;99.90;;;;;;5055779;28;20028;-85
2022/01/13 11:01:11;;;;;;;99.43;21.00;;;6.30;99.90;;;;;;5067375;28;20098;-85
2022/01/13 11:03:40;;;;;;;91.57;20.98;;;6.40;99.90;;;;;;5083453;28;20094;-85
2022/01/13 11:06:08;;;;;;;82.43;20.25;;;6.30;99.90;;;;;;5072328;28;20044;-86
2022/01/13 11:08:46;;;;;;;92.07;21.67;;;6.30;99.90;;;;;;5044134;28;20502;-85
2022/01/13 11:11:23;;;;;;;89.88;20.70;;;6.40;99.90;;;;;;5069760;28;20119;-86
2022/01/13 11:14:08;;;;;;;76.32;20.23;;;6.40;99.90;;;;;;5079007;28;20036;-85
2022/01/13 11:16:36;;;;;;;92.63;20.55;;;6.40;99.90;;;;;;5059910;28;20048;-86
2022/01/13 11:19:02;;;;;;;100.13;21.65;;;6.50;99.90;;;;;;5047876;28;20086;-85
2022/01/13 11:21:28;;;;;;;72.15;20.05;;;6.50;99.90;;;;;;5077937;28;20040;-86
2022/01/13 11:23:54;;;;;;;75.30;18.98;;;6.50;99.90;;;;;;5047320;28;20033;-86
2022/01/13 11:26:21;;;;;;;78.05;19.63;;;6.50;99.90;;;;;;5096982;28;20041;-85
2022/01/13 11:28:48;;;;;;;77.18;19.02;;;6.60;99.90;;;;;;5078449;28;20075;-86
2022/01/13 11:31:14;;;;;;;74.15;19.10;;;6.60;99.90;;;;;;5095991;28;20048;-87
2022/01/13 11:33:40;;;;;;;75.57;19.77;;;6.60;99.90;;;;;;5076442;28;20376;-87
2022/01/13 11:36:12;;;;;;;72.68;20.45;;;6.60;99.90;;;;;;5061656;28;20300;-86
2022/01/13 11:38:38;;;;;;;79.80;21.02;;;6.60;99.90;;;;;;5080677;28;20167;-86
2022/01/13 11:41:07;;;;;;;70.90;19.42;;;6.60;99.90;;;;;;5080073;28;20486;-87
2022/01/13 11:43:40;;;;;;;71.18;19.13;;;6.60;99.90;;;;;;5079782;28;20271;-86
2022/01/13 11:46:24;;;;;;;64.40;18.38;;;6.60;99.90;;;;;;5055293;28;20040;-86
2022/01/13 11:50:16;;;;;;;68.53;20.05;;;6.60;99.90;;;;;;5074808;28;20037;-85
2022/01/13 11:52:27;;;;;;;63.28;19.17;;;6.60;99.90;;;;;;5045814;28;20040;-84
2022/01/13 11:54:53;;;;;;;67.00;19.33;;;6.60;99.90;;;;;;5061239;28;20036;-85
2022/01/13 11:57:25;;;;;;;76.70;21.48;;;6.50;99.90;;;;;;5074788;28;20043;-85
2022/01/13 11:59:57;;;;;;;79.47;20.75;;;6.60;99.90;;;;;;5062326;28;20036;-85
2022/01/13 12:02:39;;;;;;;61.50;19.67;;;6.60;99.90;;;;;;5063921;28;20044;-86
2022/01/13 12:05:20;;;;;;;88.30;26.33;;;6.60;99.90;;;;;;5072555;28;20037;-84
2022/01/13 12:07:51;;;;;;;80.38;25.20;;;6.60;99.90;;;;;;5041638;28;20398;-86
2022/01/13 12:10:35;;;;;;;84.90;24.58;;;6.60;99.90;;;;;;5044206;28;20044;-88
2022/01/13 12:13:31;;;;;;;71.50;21.92;;;6.70;99.90;;;;;;5062041;28;20044;-85
2022/01/13 12:15:57;;;;;;;97.47;33.28;;;6.60;99.90;;;;;;5045625;28;20442;-87
2022/01/13 12:19:09;;;;;;;88.88;24.90;;;6.60;99.90;;;;;;5066461;28;20040;-87
2022/01/13 12:21:41;;;;;;;94.05;31.38;;;6.70;99.90;;;;;;5048183;28;20093;-88
2022/01/13 12:24:08;;;;;;;96.43;28.35;;;6.60;99.90;;;;;;5073001;28;20074;-87
2022/01/13 12:26:33;;;;;;;108.07;31.70;;;6.70;99.90;;;;;;5073296;28;20162;-88
2022/01/13 12:29:09;;;;;;;119.55;43.13;;;6.70;99.90;;;;;;5056871;28;20138;-87
2022/01/13 12:31:35;;;;;;;;;;;6.70;99.90;;;;;;5043295;28;20462;-86
2022/01/13 12:34:00;;;;;;;85.55;24.20;;;6.70;99.90;;;;;;5071380;28;19921;-87
2022/01/13 12:36:26;;;;;;;101.18;28.70;;;6.60;99.90;;;;;;5061243;28;20033;-85
2022/01/13 12:38:58;;;;;;;111.47;40.13;;;6.60;99.90;;;;;;5041704;28;20109;-86
2022/01/13 12:41:26;;;;;;;104.45;29.05;;;6.60;99.90;;;;;;5062834;28;20033;-87
2022/01/13 12:44:12;;;;;;;106.05;29.50;;;6.70;99.90;;;;;;5044214;28;20399;-87
2022/01/13 12:46:38;;;;;;;92.87;24.43;;;6.70;99.90;;;;;;5045713;28;20040;-87
2022/01/13 12:49:04;;;;;;;100.95;27.25;;;6.70;99.90;;;;;;5055458;28;20309;-87
2022/01/13 12:51:31;;;;;;;107.90;28.60;;;6.70;99.90;;;;;;5065034;28;20033;-86
2022/01/13 12:53:56;;;;;;;109.93;26.83;;;6.70;99.90;;;;;;5095345;28;20087;-86
2022/01/13 12:56:24;;;;;;;118.25;27.10;;;6.70;99.90;;;;;;5046183;28;20064;-87
2022/01/13 12:58:53;;;;;;;103.22;27.85;;;6.70;99.90;;;;;;5040355;28;20062;-87
2022/01/13 13:01:22;;;;;;;109.40;29.27;;;6.80;99.90;;;;;;5077924;28;20037;-87
2022/01/13 13:04:08;;;;;;;105.32;29.95;;;6.70;99.90;;;;;;5057355;28;20068;-88
2022/01/13 13:06:36;;;;;;;105.90;29.83;;;6.80;99.90;;;;;;5066884;28;20135;-87
2022/01/13 13:09:12;;;;;;;171.88;82.78;;;6.80;99.90;;;;;;5057385;28;20135;-88